Luxemburg, WI (54217)

7:05 PM CST on March 03, 2015 (GMT -0600)
Nicolet Airfield | Change Station
CLOSE
Current Station
Personal Weather Station
Location: Green Bay, WI
Elevation: 791 ft
Nearby Weather Stations

Elev 791 ft 44.51 °N, 87.86 °W | Updated 13 seconds ago

Overcast
Overcast
27.8 °F
Feels Like 17 °F
N
14.0
Wind Variable Wind from WNW
Gusts 18.0 mph

Today
High -- | Low -- °F
--% Chance of Precip.
Yesterday
High -- | Low -- °F
Precip. -- in
6:25 AM 5:41 PM
Waxing Gibbous, 97% visible
Pressure 29.63 in
Visibility 10.0 miles
Clouds Overcast 4000 ft
Windchill 17 °F
Dew Point 22 °F
Humidity 79%
Rainfall 0.00 in
Snow Depth Not available.
UV 0 out of 12
Pollen .40 out of 12
Air Quality Not available.
Flu Activity Not available.
METAR KOCQ 040055Z AUTO 26006KT 10SM OVC040 M03/M06 A2963 RMK AO1 T10271064

More Conditions Fewer Conditions

Pressure 29.63 in
Visibility 10.0 miles
Clouds Overcast 4000 ft
Windchill 17 °F
Dew Point 22 °F
Humidity 79%
Rainfall 0.00 in
Snow Depth Not available.
UV 0 out of 12
Pollen .40 out of 12
Air Quality Not available.
Flu Activity Not available.
METAR KOCQ 040055Z AUTO 26006KT 10SM OVC040 M03/M06 A2963 RMK AO1 T10271064

More Conditions Fewer Conditions

10-Day Weather Forecast

Almanac

Astronomy

Mar. 03, 2015 Rise Set
Actual Time
Civil Twilight
Nautical Twilight
Astronomical Twilight
Moon
Length of Visible Light
Length of Day
Tomorrow will be .
, % of the Moon is Illuminated

Today's Extremes

State Highs State Lows

Community

WunderPhotos

Upload Photos

1,802,340 photos uploaded!

WunderBlogs® & News

Nearby

Air Quality

  Air Quality AQ Index Pollutant
Not available.

Snow Depth

Station Depth Elevation

Earthquake Activity

City Distance Mag. Time & Date
Minimum magnitude displayed is 2.5.

Coastal Water Temperatures

Place Temperature

Nearby Weather Stations